createdAt,value
2019-02-18T00:01:01.574Z,101578.16
2019-02-18T00:02:03.819Z,101573.51
2019-02-18T00:03:06.775Z,101569.98
2019-02-18T00:04:08.988Z,101569.06
2019-02-18T00:05:11.196Z,101577.78
2019-02-18T00:06:14.451Z,101568.30
2019-02-18T00:07:16.689Z,101566.63
2019-02-18T00:08:18.888Z,101570.15
2019-02-18T00:09:22.236Z,101570.53
2019-02-18T00:10:24.440Z,101571.28
2019-02-18T00:11:26.624Z,101577.78
2019-02-18T00:12:29.149Z,101572.96
2019-02-18T00:13:31.860Z,101573.13
2019-02-18T00:14:34.065Z,101576.66
2019-02-18T00:15:37.414Z,101578.88
2019-02-18T00:16:39.605Z,101574.05
2019-02-18T00:17:41.830Z,101575.73
2019-02-18T00:18:44.241Z,101573.13
2019-02-18T00:19:46.769Z,101576.28
2019-02-18T00:20:48.970Z,101581.31
2019-02-18T00:21:51.535Z,101571.83
2019-02-18T00:22:53.776Z,101576.11
2019-02-18T00:23:55.956Z,101577.20
2019-02-18T00:24:58.168Z,101576.66
2019-02-18T00:26:00.391Z,101576.28
2019-02-18T00:27:02.704Z,101573.68
2019-02-18T00:28:05.014Z,101573.68
2019-02-18T00:29:07.181Z,101574.98
2019-02-18T00:30:09.393Z,101570.32
2019-02-18T00:31:11.642Z,101567.34
2019-02-18T00:32:13.892Z,101573.84
2019-02-18T00:33:19.083Z,101572.37
2019-02-18T00:34:21.307Z,101568.47
2019-02-18T00:35:23.513Z,101569.77
2019-02-18T00:36:25.732Z,101572.00
2019-02-18T00:37:27.933Z,101574.60
2019-02-18T00:38:30.185Z,101574.98
2019-02-18T00:39:32.483Z,101568.47
2019-02-18T00:40:34.676Z,101561.59
2019-02-18T00:41:37.032Z,101566.05
2019-02-18T00:42:39.271Z,101572.00
2019-02-18T00:43:41.488Z,101565.87
2019-02-18T00:44:43.688Z,101568.09
2019-02-18T00:45:45.903Z,101567.72
2019-02-18T00:46:48.113Z,101568.09
2019-02-18T00:47:50.333Z,101563.27
2019-02-18T00:48:52.563Z,101566.42
2019-02-18T00:49:54.807Z,101564.19
2019-02-18T00:50:57.052Z,101566.80
2019-02-18T00:51:59.347Z,101564.19
2019-02-18T00:53:03.943Z,101561.05
2019-02-18T00:54:05.442Z,101563.65
2019-02-18T00:55:07.647Z,101559.37
2019-02-18T00:56:09.844Z,101564.19
2019-02-18T00:57:12.041Z,101558.06
2019-02-18T00:58:14.267Z,101566.42
2019-02-18T00:59:16.513Z,101564.02
2019-02-18T01:00:18.855Z,101564.19
2019-02-18T01:01:21.056Z,101566.80
2019-02-18T01:02:23.258Z,101563.81
2019-02-18T01:03:25.478Z,101564.19
2019-02-18T01:04:27.724Z,101572.00
2019-02-18T01:05:29.951Z,101564.95
2019-02-18T01:06:32.301Z,101568.84
2019-02-18T01:07:35.319Z,101566.25
2019-02-18T01:08:37.624Z,101560.13
2019-02-18T01:09:42.894Z,101564.95
2019-02-18T01:10:45.107Z,101564.95
2019-02-18T01:11:47.315Z,101568.84
2019-02-18T01:12:49.544Z,101562.72
2019-02-18T01:13:51.760Z,101562.72
2019-02-18T01:14:53.986Z,101562.72
2019-02-18T01:15:56.200Z,101563.09
2019-02-18T01:16:58.395Z,101561.80
2019-02-18T01:18:00.623Z,101564.78
2019-02-18T01:19:02.831Z,101563.09
2019-02-18T01:20:05.057Z,101562.55
2019-02-18T01:21:07.287Z,101558.65
2019-02-18T01:22:09.492Z,101558.65
2019-02-18T01:23:11.698Z,101563.48
2019-02-18T01:24:16.191Z,101556.42
2019-02-18T01:25:18.431Z,101556.42
2019-02-18T01:26:20.633Z,101559.03
2019-02-18T01:27:22.836Z,101556.42
2019-02-18T01:28:25.053Z,101555.13
2019-02-18T01:29:27.253Z,101556.05
2019-02-18T01:30:29.491Z,101554.20
2019-02-18T01:31:31.691Z,101560.70
2019-02-18T01:32:33.903Z,101554.20
2019-02-18T01:33:37.123Z,101557.55
2019-02-18T01:34:39.325Z,101557.73
2019-02-18T01:35:41.555Z,101561.08
2019-02-18T01:36:43.861Z,101557.17
2019-02-18T01:37:46.429Z,101554.58
2019-02-18T01:38:48.770Z,101552.73
2019-02-18T01:39:50.991Z,101557.55
2019-02-18T01:40:53.295Z,101550.12
2019-02-18T01:41:55.505Z,101557.17
2019-02-18T01:42:57.709Z,101557.55
2019-02-18T01:44:02.629Z,101558.11
2019-02-18T01:45:04.826Z,101551.43
2019-02-18T01:46:07.175Z,101549.20
2019-02-18T01:47:09.421Z,101550.12
2019-02-18T01:48:11.625Z,101544.38
2019-02-18T01:49:13.855Z,101542.70
2019-02-18T01:50:16.054Z,101546.60
2019-02-18T01:51:18.297Z,101542.53
2019-02-18T01:52:20.605Z,101539.17
2019-02-18T01:53:22.863Z,101541.78
2019-02-18T01:54:25.059Z,101542.16
2019-02-18T01:55:27.267Z,101540.85
2019-02-18T01:56:29.541Z,101543.45
2019-02-18T01:57:31.732Z,101539.38
2019-02-18T01:58:34.023Z,101540.30
2019-02-18T01:59:36.226Z,101543.45
2019-02-18T02:00:38.350Z,101540.30
2019-02-18T02:01:40.571Z,101537.70
2019-02-18T02:02:42.775Z,101534.73
2019-02-18T02:03:44.999Z,101533.80
2019-02-18T02:04:47.210Z,101536.95
2019-02-18T02:05:49.421Z,101539.55
2019-02-18T02:06:51.649Z,101534.73
2019-02-18T02:07:56.641Z,101535.10
2019-02-18T02:08:57.727Z,101530.27
2019-02-18T02:09:59.925Z,101527.67
2019-02-18T02:11:02.147Z,101528.59
2019-02-18T02:12:04.466Z,101529.14
2019-02-18T02:13:06.673Z,101526.00
2019-02-18T02:14:08.875Z,101522.47
2019-02-18T02:15:11.081Z,101526.00
2019-02-18T02:16:13.293Z,101528.59
2019-02-18T02:17:15.538Z,101527.84
2019-02-18T02:18:17.750Z,101523.94
2019-02-18T02:19:19.971Z,101524.32
2019-02-18T02:20:22.164Z,101522.09
2019-02-18T02:21:24.372Z,101518.95
2019-02-18T02:22:28.170Z,101520.80
2019-02-18T02:23:30.384Z,101518.19
2019-02-18T02:24:32.574Z,101521.17
2019-02-18T02:25:34.710Z,101519.12
2019-02-18T02:26:36.922Z,101515.59
2019-02-18T02:27:39.128Z,101516.89
2019-02-18T02:28:41.319Z,101512.06
2019-02-18T02:29:43.532Z,101514.29
2019-02-18T02:30:45.731Z,101515.22
2019-02-18T02:31:47.964Z,101515.22
2019-02-18T02:32:50.173Z,101515.97
2019-02-18T02:33:52.390Z,101516.89
2019-02-18T02:34:54.581Z,101515.59
2019-02-18T02:35:56.804Z,101510.77
2019-02-18T02:36:59.046Z,101509.84
2019-02-18T02:38:07.767Z,101508.16
2019-02-18T02:39:05.253Z,101511.14
2019-02-18T02:40:07.496Z,101502.04
2019-02-18T02:41:09.701Z,101502.80
2019-02-18T02:42:11.924Z,101509.84
2019-02-18T02:43:14.124Z,101505.56
2019-02-18T02:44:16.495Z,101503.34
2019-02-18T02:45:18.690Z,101504.64
2019-02-18T02:46:20.884Z,101505.19
2019-02-18T02:47:23.106Z,101498.52
2019-02-18T02:48:25.296Z,101499.44
2019-02-18T02:49:27.508Z,101498.52
2019-02-18T02:50:29.695Z,101493.31
2019-02-18T02:51:31.895Z,101494.98
2019-02-18T02:52:34.121Z,101495.53
2019-02-18T02:53:36.317Z,101492.93
2019-02-18T02:54:38.524Z,101493.31
2019-02-18T02:55:40.721Z,101493.86
2019-02-18T02:56:42.922Z,101485.88
2019-02-18T02:57:45.134Z,101487.73
2019-02-18T02:58:47.347Z,101486.80
2019-02-18T02:59:49.550Z,101488.11
2019-02-18T03:00:51.774Z,101488.11
2019-02-18T03:01:53.976Z,101487.73
2019-02-18T03:02:56.193Z,101486.80
2019-02-18T03:03:58.435Z,101491.63
2019-02-18T03:05:00.640Z,101493.31
2019-02-18T03:06:02.832Z,101491.25
2019-02-18T03:07:05.024Z,101493.69
2019-02-18T03:08:19.500Z,101494.61
2019-02-18T03:09:11.076Z,101495.36
2019-02-18T03:10:13.322Z,101498.89
2019-02-18T03:11:15.534Z,101501.66
2019-02-18T03:12:17.751Z,101497.21
2019-02-18T03:13:20.063Z,101501.11
2019-02-18T03:14:22.272Z,101502.41
2019-02-18T03:15:24.471Z,101492.39
2019-02-18T03:16:26.800Z,101501.28
2019-02-18T03:17:29.025Z,101498.52
2019-02-18T03:18:31.245Z,101499.44
2019-02-18T03:19:33.426Z,101497.21
2019-02-18T03:20:35.624Z,101490.16
2019-02-18T03:21:38.928Z,101488.86
2019-02-18T03:22:42.755Z,101499.81
2019-02-18T03:23:44.947Z,101499.81
2019-02-18T03:24:47.152Z,101502.58
2019-02-18T03:25:49.349Z,101492.55
2019-02-18T03:26:51.545Z,101490.70
2019-02-18T03:27:53.764Z,101491.63
2019-02-18T03:28:55.978Z,101492.93
2019-02-18T03:29:58.150Z,101493.31
2019-02-18T03:31:00.357Z,101485.88
2019-02-18T03:32:02.558Z,101486.26
2019-02-18T03:33:04.770Z,101484.58
2019-02-18T03:34:07.056Z,101486.98
2019-02-18T03:35:09.259Z,101491.09
2019-02-18T03:36:11.452Z,101488.86
2019-02-18T03:37:13.583Z,101489.78
2019-02-18T03:38:15.812Z,101489.78
2019-02-18T03:39:18.018Z,101490.70
2019-02-18T03:40:20.230Z,101484.95
2019-02-18T03:41:22.445Z,101492.77
2019-02-18T03:42:26.750Z,101489.41
2019-02-18T03:43:28.943Z,101486.26
2019-02-18T03:44:31.151Z,101486.60
2019-02-18T03:45:33.343Z,101490.16
2019-02-18T03:46:35.571Z,101484.58
2019-02-18T03:47:37.789Z,101485.88
2019-02-18T03:48:40.002Z,101481.60
2019-02-18T03:49:42.216Z,101481.22
2019-02-18T03:50:44.415Z,101475.85
2019-02-18T03:51:46.616Z,101479.75
2019-02-18T03:52:48.829Z,101481.05
2019-02-18T03:53:51.023Z,101479.00
2019-02-18T03:54:53.148Z,101477.70
2019-02-18T03:55:55.354Z,101478.08
2019-02-18T03:56:57.565Z,101482.15
2019-02-18T03:57:59.778Z,101482.53
2019-02-18T03:59:01.969Z,101475.47
2019-02-18T04:00:04.183Z,101479.38
2019-02-18T04:01:06.394Z,101483.66
2019-02-18T04:02:08.614Z,101474.55
2019-02-18T04:03:10.820Z,101483.28
2019-02-18T04:04:13.016Z,101473.25
2019-02-18T04:05:15.224Z,101478.45
2019-02-18T04:06:17.443Z,101475.85
2019-02-18T04:07:19.667Z,101477.16
2019-02-18T04:08:21.893Z,101478.08
2019-02-18T04:09:24.331Z,101474.89
2019-02-18T04:10:26.557Z,101471.95
2019-02-18T04:11:28.753Z,101470.27
2019-02-18T04:12:30.946Z,101469.35
2019-02-18T04:13:33.175Z,101478.08
2019-02-18T04:14:35.370Z,101474.89
2019-02-18T04:15:37.585Z,101469.35
2019-02-18T04:16:39.784Z,101469.14
2019-02-18T04:17:41.990Z,101470.65
2019-02-18T04:18:44.203Z,101463.77
2019-02-18T04:19:46.411Z,101468.39
2019-02-18T04:20:48.619Z,101466.55
2019-02-18T04:21:53.839Z,101468.39
2019-02-18T04:22:56.061Z,101477.50
2019-02-18T04:23:58.267Z,101475.27
2019-02-18T04:25:00.471Z,101480.09
2019-02-18T04:26:02.678Z,101475.27
2019-02-18T04:27:04.890Z,101480.09
2019-02-18T04:28:07.113Z,101474.89
2019-02-18T04:29:09.318Z,101474.89
2019-02-18T04:30:13.652Z,101484.00
2019-02-18T04:31:15.361Z,101475.27
2019-02-18T04:32:17.569Z,101478.25
2019-02-18T04:33:19.794Z,101475.65
2019-02-18T04:34:21.999Z,101470.45
2019-02-18T04:35:24.204Z,101473.97
2019-02-18T04:36:26.413Z,101468.39
2019-02-18T04:37:28.602Z,101465.45
2019-02-18T04:38:30.823Z,101467.09
2019-02-18T04:39:33.025Z,101467.47
2019-02-18T04:40:35.259Z,101464.87
2019-02-18T04:41:37.483Z,101469.35
2019-02-18T04:42:39.686Z,101457.44
2019-02-18T04:43:42.270Z,101465.79
2019-02-18T04:44:44.503Z,101458.73
2019-02-18T04:45:46.718Z,101462.27
2019-02-18T04:46:48.932Z,101465.62
2019-02-18T04:47:51.285Z,101463.95
2019-02-18T04:48:53.463Z,101468.77
2019-02-18T04:49:55.661Z,101465.79
2019-02-18T04:50:57.798Z,101457.06
2019-02-18T04:52:00.008Z,101451.86
2019-02-18T04:53:02.219Z,101455.59
2019-02-18T04:54:04.460Z,101458.36
2019-02-18T04:55:06.676Z,101456.14
2019-02-18T04:56:08.897Z,101452.23
2019-02-18T04:57:11.099Z,101452.23
2019-02-18T04:58:13.306Z,101456.14
2019-02-18T04:59:15.521Z,101453.91
2019-02-18T05:00:17.654Z,101449.64
2019-02-18T05:01:19.862Z,101451.31
2019-02-18T05:02:22.066Z,101457.44
2019-02-18T05:03:24.272Z,101456.69
2019-02-18T05:04:26.524Z,101452.62
2019-02-18T05:05:28.724Z,101460.05
2019-02-18T05:06:30.969Z,101459.12
2019-02-18T05:07:33.158Z,101455.22
2019-02-18T05:08:35.378Z,101453.16
2019-02-18T05:09:39.805Z,101453.54
2019-02-18T05:10:41.399Z,101466.16
2019-02-18T05:11:43.601Z,101454.84
2019-02-18T05:12:45.805Z,101453.54
2019-02-18T05:13:47.993Z,101453.16
2019-02-18T05:14:50.260Z,101454.46
2019-02-18T05:15:52.471Z,101449.64
2019-02-18T05:16:54.680Z,101452.23
2019-02-18T05:17:56.894Z,101448.34
2019-02-18T05:18:59.099Z,101447.95
2019-02-18T05:20:01.323Z,101450.56
2019-02-18T05:21:03.520Z,101447.03
2019-02-18T05:22:05.726Z,101447.41
2019-02-18T05:23:07.934Z,101447.03
2019-02-18T05:24:10.133Z,101446.11
2019-02-18T05:25:12.951Z,101438.69
2019-02-18T05:26:15.431Z,101441.45
2019-02-18T05:27:17.602Z,101446.28
2019-02-18T05:28:19.820Z,101444.44
2019-02-18T05:29:22.044Z,101447.41
2019-02-18T05:30:24.269Z,101442.21
2019-02-18T05:31:26.496Z,101441.83
2019-02-18T05:32:28.696Z,101448.72
2019-02-18T05:33:31.119Z,101442.97
2019-02-18T05:34:33.320Z,101448.34
2019-02-18T05:35:35.529Z,101443.89
2019-02-18T05:36:37.756Z,101445.19
2019-02-18T05:37:39.960Z,101447.41
2019-02-18T05:38:42.178Z,101439.23
2019-02-18T05:39:44.380Z,101440.53
2019-02-18T05:40:46.611Z,101439.61
2019-02-18T05:41:48.931Z,101444.06
2019-02-18T05:42:51.135Z,101439.61
2019-02-18T05:43:53.338Z,101439.23
2019-02-18T05:44:55.540Z,101441.45
2019-02-18T05:45:57.762Z,101445.19
2019-02-18T05:46:59.996Z,101443.89
2019-02-18T05:48:02.201Z,101443.13
2019-02-18T05:49:04.403Z,101444.81
2019-02-18T05:50:06.608Z,101443.51
2019-02-18T05:51:08.845Z,101439.23
2019-02-18T05:52:11.046Z,101441.83
2019-02-18T05:53:13.236Z,101443.68
2019-02-18T05:54:15.456Z,101441.29
2019-02-18T05:55:17.955Z,101444.06
2019-02-18T05:56:20.216Z,101444.64
2019-02-18T05:57:23.020Z,101446.11
2019-02-18T05:58:25.433Z,101443.13
2019-02-18T05:59:27.656Z,101443.08
2019-02-18T06:00:29.856Z,101452.91
2019-02-18T06:01:32.149Z,101448.95
2019-02-18T06:02:34.359Z,101458.44
2019-02-18T06:03:38.291Z,101459.91
2019-02-18T06:04:40.500Z,101460.23
2019-02-18T06:05:44.661Z,101454.98
2019-02-18T06:06:46.585Z,101453.47
2019-02-18T06:07:48.782Z,101457.36
2019-02-18T06:08:50.985Z,101454.93
2019-02-18T06:09:53.192Z,101462.69
2019-02-18T06:10:55.388Z,101457.11
2019-02-18T06:11:57.721Z,101462.31
2019-02-18T06:12:59.928Z,101460.63
2019-02-18T06:14:02.144Z,101462.86
2019-02-18T06:15:04.347Z,101459.88
2019-02-18T06:16:06.564Z,101457.27
2019-02-18T06:17:08.789Z,101458.20
2019-02-18T06:18:10.983Z,101460.42
2019-02-18T06:19:13.198Z,101462.10
2019-02-18T06:20:15.507Z,101469.37
2019-02-18T06:21:17.724Z,101472.89
2019-02-18T06:22:19.950Z,101473.27
2019-02-18T06:23:22.179Z,101471.97
2019-02-18T06:24:24.382Z,101469.75
2019-02-18T06:25:26.595Z,101477.01
2019-02-18T06:26:28.938Z,101473.48
2019-02-18T06:27:31.290Z,101475.54
2019-02-18T06:28:33.520Z,101469.62
2019-02-18T06:29:35.739Z,101468.70
2019-02-18T06:30:37.957Z,101476.12
2019-02-18T06:31:40.342Z,101469.45
2019-02-18T06:32:42.554Z,101473.36
2019-02-18T06:33:44.762Z,101477.64
2019-02-18T06:34:49.997Z,101477.09
2019-02-18T06:35:52.211Z,101472.65
2019-02-18T06:36:54.407Z,101481.17
2019-02-18T06:37:56.663Z,101481.94
2019-02-18T06:38:58.884Z,101481.01
2019-02-18T06:40:01.101Z,101481.39
2019-02-18T06:41:03.312Z,101483.06
2019-02-18T06:42:05.548Z,101481.22
2019-02-18T06:43:07.752Z,101478.99
2019-02-18T06:44:09.962Z,101482.73
2019-02-18T06:45:34.007Z,101476.98
2019-02-18T06:46:42.262Z,101474.59
2019-02-18T06:47:46.031Z,101479.80
2019-02-18T06:48:52.300Z,101473.13
2019-02-18T06:49:54.515Z,101473.50
2019-02-18T06:50:56.732Z,101476.86
2019-02-18T06:51:59.247Z,101478.50
2019-02-18T06:53:01.487Z,101481.10
2019-02-18T06:54:03.751Z,101478.70
2019-02-18T06:55:05.957Z,101487.81
2019-02-18T06:56:08.408Z,101476.11
2019-02-18T06:57:38.439Z,101478.92
2019-02-18T06:58:52.608Z,101473.34
2019-02-18T06:59:57.196Z,101475.77
2019-02-18T07:01:24.398Z,101479.67
2019-02-18T07:02:35.785Z,101481.19
2019-02-18T07:03:43.471Z,101482.48
2019-02-18T07:04:55.674Z,101480.43
2019-02-18T07:06:16.763Z,101482.48
2019-02-18T07:07:27.953Z,101483.62
2019-02-18T07:08:56.127Z,101481.77
2019-02-18T07:10:17.461Z,101479.00
2019-02-18T07:11:27.346Z,101481.22
2019-02-18T07:12:32.108Z,101484.95
2019-02-18T07:13:34.310Z,101482.36
2019-02-18T07:14:36.519Z,101483.66
2019-02-18T07:15:38.735Z,101487.19
2019-02-18T07:16:40.943Z,101484.58
2019-02-18T07:17:43.290Z,101486.98
2019-02-18T07:18:45.533Z,101481.78
2019-02-18T07:19:47.768Z,101495.53
2019-02-18T07:20:50.027Z,101509.84
2019-02-18T07:21:52.213Z,101505.02
2019-02-18T07:22:54.413Z,101507.78
2019-02-18T07:23:56.608Z,101508.16
2019-02-18T07:25:02.361Z,101511.14
2019-02-18T07:26:04.567Z,101509.67
2019-02-18T07:27:06.773Z,101512.82
2019-02-18T07:28:08.993Z,101514.13
2019-02-18T07:29:11.236Z,101513.20
2019-02-18T07:30:13.473Z,101512.44
2019-02-18T07:31:15.734Z,101508.75
2019-02-18T07:32:17.941Z,101509.30
2019-02-18T07:33:20.147Z,101508.75
2019-02-18T07:34:22.354Z,101506.52
2019-02-18T07:35:24.589Z,101510.42
2019-02-18T07:36:26.788Z,101510.26
2019-02-18T07:37:28.982Z,101508.58
2019-02-18T07:38:31.202Z,101512.86
2019-02-18T07:39:33.405Z,101513.41
2019-02-18T07:40:35.715Z,101507.28
2019-02-18T07:41:38.077Z,101511.73
2019-02-18T07:42:40.287Z,101510.42
2019-02-18T07:43:42.499Z,101513.41
2019-02-18T07:44:44.722Z,101512.48
2019-02-18T07:45:47.018Z,101519.16
2019-02-18T07:46:50.602Z,101514.70
2019-02-18T07:47:52.731Z,101519.53
2019-02-18T07:48:54.955Z,101518.23
2019-02-18T07:49:57.158Z,101512.27
2019-02-18T07:50:59.400Z,101509.47
2019-02-18T07:52:01.624Z,101515.05
2019-02-18T07:53:04.344Z,101514.80
2019-02-18T07:54:06.559Z,101517.73
2019-02-18T07:55:08.774Z,101513.62
2019-02-18T07:56:11.003Z,101518.07
2019-02-18T07:57:13.235Z,101512.28
2019-02-18T07:58:15.585Z,101510.18
2019-02-18T07:59:17.792Z,101507.95
2019-02-18T08:00:19.998Z,101506.44
2019-02-18T08:01:22.238Z,101510.30
2019-02-18T08:02:24.444Z,101513.61
2019-02-18T08:03:26.655Z,101508.95
2019-02-18T08:04:28.863Z,101511.55
2019-02-18T08:05:31.099Z,101508.95
2019-02-18T08:06:33.330Z,101508.90
2019-02-18T08:07:35.544Z,101514.81
2019-02-18T08:08:37.977Z,101514.98
2019-02-18T08:09:40.199Z,101518.14
2019-02-18T08:10:42.417Z,101512.38
2019-02-18T08:11:44.908Z,101522.79
2019-02-18T08:12:47.115Z,101516.62
2019-02-18T08:13:49.326Z,101518.13
2019-02-18T08:14:54.506Z,101510.69
2019-02-18T08:15:56.802Z,101511.99
2019-02-18T08:16:59.062Z,101512.72
2019-02-18T08:18:01.257Z,101516.28
2019-02-18T08:19:03.668Z,101512.17
2019-02-18T08:20:05.794Z,101511.99
2019-02-18T08:21:08.010Z,101515.31
2019-02-18T08:22:10.232Z,101516.08
2019-02-18T08:23:12.500Z,101509.78
2019-02-18T08:24:14.810Z,101511.63
2019-02-18T08:25:17.302Z,101509.78
2019-02-18T08:26:19.503Z,101508.09
2019-02-18T08:27:21.760Z,101509.78
2019-02-18T08:28:23.976Z,101507.01
2019-02-18T08:29:26.174Z,101500.50
2019-02-18T08:30:28.394Z,101500.33
2019-02-18T08:31:30.608Z,101499.95
2019-02-18T08:32:32.980Z,101502.39
2019-02-18T08:33:35.188Z,101500.17
2019-02-18T08:34:40.179Z,101501.09
2019-02-18T08:35:42.391Z,101499.45
2019-02-18T08:36:44.602Z,101503.91
2019-02-18T08:37:46.901Z,101500.38
2019-02-18T08:38:49.122Z,101497.78
2019-02-18T08:39:51.318Z,101496.85
2019-02-18T08:40:53.538Z,101498.70
2019-02-18T08:41:55.744Z,101499.08
2019-02-18T08:42:58.184Z,101502.44
2019-02-18T08:44:00.394Z,101504.50
2019-02-18T08:45:02.598Z,101504.50
2019-02-18T08:46:04.824Z,101501.89
2019-02-18T08:47:07.051Z,101503.58
2019-02-18T08:48:09.351Z,101502.27
2019-02-18T08:49:11.552Z,101499.67
2019-02-18T08:50:13.806Z,101498.70
2019-02-18T08:51:15.959Z,101502.61
2019-02-18T08:52:18.164Z,101503.37
2019-02-18T08:53:20.438Z,101505.97
2019-02-18T08:54:22.668Z,101503.37
2019-02-18T08:55:24.922Z,101506.52
2019-02-18T08:56:29.427Z,101506.73
2019-02-18T08:57:31.829Z,101506.35
2019-02-18T08:58:34.064Z,101502.07
2019-02-18T08:59:36.272Z,101503.91
2019-02-18T09:00:38.479Z,101502.99
2019-02-18T09:01:40.676Z,101500.77
2019-02-18T09:02:44.454Z,101504.67
2019-02-18T09:03:46.849Z,101505.97
2019-02-18T09:04:49.131Z,101508.95
2019-02-18T09:05:51.294Z,101505.43
2019-02-18T09:06:53.559Z,101505.43
2019-02-18T09:07:55.794Z,101506.35
2019-02-18T09:08:58.049Z,101504.13
2019-02-18T09:10:00.374Z,101500.22
2019-02-18T09:11:02.694Z,101502.83
2019-02-18T09:12:06.106Z,101501.91
2019-02-18T09:13:08.324Z,101504.13
2019-02-18T09:14:10.563Z,101500.98
2019-02-18T09:15:15.056Z,101501.36
2019-02-18T09:16:17.243Z,101500.81
2019-02-18T09:17:19.439Z,101499.13
2019-02-18T09:18:23.147Z,101497.83
2019-02-18T09:19:25.387Z,101494.30
2019-02-18T09:20:27.846Z,101496.16
2019-02-18T09:21:31.687Z,101487.80
2019-02-18T09:22:52.828Z,101488.72
2019-02-18T09:24:20.211Z,101486.12
2019-02-18T09:25:25.304Z,101484.81
2019-02-18T09:26:29.605Z,101487.80
2019-02-18T09:27:31.809Z,101486.88
2019-02-18T09:28:34.128Z,101486.88
2019-02-18T09:29:36.376Z,101486.33
2019-02-18T09:30:40.844Z,101480.20
2019-02-18T09:31:43.092Z,101483.73
2019-02-18T09:32:45.375Z,101481.13
2019-02-18T09:33:47.676Z,101481.13
2019-02-18T09:34:53.160Z,101482.05
2019-02-18T09:35:53.829Z,101486.33
2019-02-18T09:36:56.308Z,101482.97
2019-02-18T09:37:59.845Z,101483.73
2019-02-18T09:39:02.105Z,101491.70
2019-02-18T09:40:04.309Z,101488.55
2019-02-18T09:41:06.555Z,101479.28
2019-02-18T09:42:09.055Z,101479.82
2019-02-18T09:43:11.306Z,101482.97
2019-02-18T09:44:13.868Z,101480.74
2019-02-18T09:45:16.643Z,101482.42
2019-02-18T09:46:18.937Z,101484.65
2019-02-18T09:47:21.194Z,101483.34
2019-02-18T09:48:23.541Z,101488.55
2019-02-18T09:49:25.773Z,101490.40
2019-02-18T09:50:33.520Z,101488.17
2019-02-18T09:51:35.713Z,101483.34
2019-02-18T09:52:37.963Z,101486.12
2019-02-18T09:53:40.502Z,101488.55
2019-02-18T09:54:44.495Z,101481.34
2019-02-18T09:55:47.020Z,101481.71
2019-02-18T09:56:49.537Z,101481.55
2019-02-18T09:57:52.054Z,101482.30
2019-02-18T09:58:54.396Z,101482.30
2019-02-18T09:59:56.724Z,101479.16
2019-02-18T10:00:59.176Z,101480.63
2019-02-18T10:02:01.624Z,101475.42
2019-02-18T10:03:03.985Z,101471.91
2019-02-18T10:04:07.471Z,101470.22
2019-02-18T10:05:10.064Z,101471.52
2019-02-18T10:06:12.531Z,101467.83
2019-02-18T10:07:14.935Z,101472.66
2019-02-18T10:08:17.310Z,101468.38
2019-02-18T10:09:19.674Z,101463.55
2019-02-18T10:10:21.917Z,101462.25
2019-02-18T10:11:24.196Z,101461.33
2019-02-18T10:12:26.426Z,101461.33
2019-02-18T10:13:28.785Z,101458.17
2019-02-18T10:14:31.060Z,101454.66
2019-02-18T10:15:33.278Z,101458.34
2019-02-18T10:16:35.570Z,101456.87
2019-02-18T10:17:37.857Z,101457.42
2019-02-18T10:18:40.076Z,101452.22
2019-02-18T10:19:43.085Z,101452.22
2019-02-18T10:20:45.461Z,101447.22
2019-02-18T10:21:47.714Z,101445.16
2019-02-18T10:22:49.931Z,101447.77
2019-02-18T10:23:52.266Z,101449.61
2019-02-18T10:24:54.507Z,101449.06
2019-02-18T10:25:56.717Z,101448.14
2019-02-18T10:26:58.985Z,101447.39
2019-02-18T10:28:01.407Z,101447.77
2019-02-18T10:29:03.676Z,101449.45
2019-02-18T10:30:06.031Z,101443.48
2019-02-18T10:31:08.278Z,101446.09
2019-02-18T10:32:10.667Z,101445.33
2019-02-18T10:33:14.911Z,101435.14
2019-02-18T10:34:18.136Z,101441.27
2019-02-18T10:35:20.556Z,101436.44
2019-02-18T10:36:25.055Z,101434.21
2019-02-18T10:37:27.341Z,101438.66
2019-02-18T10:38:29.597Z,101445.88
2019-02-18T10:39:31.858Z,101445.71
2019-02-18T10:40:34.050Z,101441.81
2019-02-18T10:41:39.159Z,101447.94
2019-02-18T10:42:41.410Z,101448.31
2019-02-18T10:43:45.018Z,101444.41
2019-02-18T10:44:47.164Z,101443.86
2019-02-18T10:45:49.693Z,101444.78
2019-02-18T10:46:51.916Z,101440.88
2019-02-18T10:47:54.186Z,101437.73
2019-02-18T10:48:56.679Z,101436.44
2019-02-18T10:49:58.939Z,101436.06
2019-02-18T10:51:02.964Z,101436.44
2019-02-18T10:52:05.234Z,101433.45
2019-02-18T10:53:07.437Z,101436.98
2019-02-18T10:54:09.736Z,101435.14
2019-02-18T10:55:12.348Z,101429.93
2019-02-18T10:56:14.883Z,101432.70
2019-02-18T10:57:17.496Z,101428.62
2019-02-18T10:58:19.753Z,101427.88
2019-02-18T10:59:21.962Z,101423.42
2019-02-18T11:00:27.347Z,101429.55
2019-02-18T11:01:29.567Z,101427.88
2019-02-18T11:02:31.825Z,101423.42
2019-02-18T11:03:35.747Z,101420.45
2019-02-18T11:04:38.202Z,101422.12
2019-02-18T11:05:43.117Z,101422.12
2019-02-18T11:06:45.305Z,101423.97
2019-02-18T11:07:47.558Z,101420.98
2019-02-18T11:08:49.801Z,101420.45
2019-02-18T11:09:52.219Z,101423.42
2019-02-18T11:10:54.598Z,101424.34
2019-02-18T11:11:56.955Z,101420.45
2019-02-18T11:12:59.243Z,101416.92
2019-02-18T11:14:01.781Z,101423.97
2019-02-18T11:15:04.255Z,101422.67
2019-02-18T11:16:06.856Z,101423.97
2019-02-18T11:17:09.176Z,101421.75
2019-02-18T11:18:11.426Z,101422.29
2019-02-18T11:19:13.656Z,101420.98
2019-02-18T11:20:15.875Z,101412.27
2019-02-18T11:21:20.345Z,101412.64
2019-02-18T11:22:22.558Z,101417.47
2019-02-18T11:23:24.777Z,101416.70
2019-02-18T11:24:27.178Z,101417.09
2019-02-18T11:25:30.044Z,101408.36
2019-02-18T11:26:32.378Z,101414.86
2019-02-18T11:27:37.570Z,101411.34
2019-02-18T11:28:39.997Z,101415.41
2019-02-18T11:29:42.372Z,101416.16
2019-02-18T11:30:44.772Z,101411.72
2019-02-18T11:31:47.157Z,101409.66
2019-02-18T11:32:49.375Z,101411.34
2019-02-18T11:33:51.624Z,101405.75
2019-02-18T11:34:53.847Z,101414.31
2019-02-18T11:35:56.078Z,101407.05
2019-02-18T11:36:58.295Z,101406.13
2019-02-18T11:38:00.809Z,101407.05
2019-02-18T11:39:04.415Z,101409.28
2019-02-18T11:40:06.832Z,101402.23
2019-02-18T11:41:09.080Z,101410.03
2019-02-18T11:42:11.293Z,101402.98
2019-02-18T11:43:13.519Z,101405.21
2019-02-18T11:44:15.737Z,101409.66
2019-02-18T11:45:17.935Z,101399.63
2019-02-18T11:46:20.143Z,101402.77
2019-02-18T11:47:23.529Z,101402.77
2019-02-18T11:48:25.665Z,101401.47
2019-02-18T11:49:28.198Z,101397.57
2019-02-18T11:50:30.472Z,101394.59
2019-02-18T11:51:32.681Z,101399.25
2019-02-18T11:52:34.989Z,101402.77
2019-02-18T11:53:37.236Z,101398.88
2019-02-18T11:54:39.537Z,101398.88
2019-02-18T11:55:41.771Z,101395.34
2019-02-18T11:56:44.302Z,101394.97